Time;durP1;ratioP1;P1;durP2;ratioP2;P2;SDS_P1;SDS_P2;PMS_P1;PMS_P2;Temp;Humidity;BMP_temperature;BMP_pressure;BME280_temperature;BME280_humidity;BME280_pressure;Samples;Min_cycle;Max_cycle;Signal;HPM_P1;HPM_P2
2021/09/26 00:01:25;;;;;;;7.03;4.60;;;;;;;20.93;46.17;100271.81;5052661;28;20098;-51
2021/09/26 00:03:52;;;;;;;10.10;4.50;;;;;;;20.83;46.94;100280.69;5052707;28;20028;-50
2021/09/26 00:06:17;;;;;;;7.93;4.20;;;;;;;20.58;47.60;100281.25;5052233;28;20021;-51
2021/09/26 00:08:43;;;;;;;6.55;4.32;;;;;;;20.42;47.77;100265.94;5052602;28;20028;-49
2021/09/26 00:11:08;;;;;;;6.53;4.45;;;;;;;20.50;47.61;100277.13;5051673;28;20028;-50
2021/09/26 00:13:34;;;;;;;9.20;4.22;;;;;;;20.55;47.48;100284.47;5052347;28;20057;-49
2021/09/26 00:16:00;;;;;;;6.00;4.40;;;;;;;20.44;48.15;100280.84;5051098;28;20032;-48
2021/09/26 00:18:25;;;;;;;5.53;4.18;;;;;;;20.59;47.67;100287.47;5052432;28;20052;-49
2021/09/26 00:20:51;;;;;;;6.32;4.35;;;;;;;20.81;47.42;100281.97;5052398;28;20021;-49
2021/09/26 00:23:18;;;;;;;9.07;4.55;;;;;;;20.64;47.64;100290.25;5052604;28;20405;-51
2021/09/26 00:25:43;;;;;;;9.60;4.38;;;;;;;20.30;48.54;100291.25;5052594;28;20032;-48
2021/09/26 00:28:09;;;;;;;6.47;4.45;;;;;;;20.23;49.00;100289.81;5052242;28;20337;-51
2021/09/26 00:30:34;;;;;;;6.70;4.30;;;;;;;20.37;49.08;100280.25;5052265;28;20373;-51
2021/09/26 00:33:00;;;;;;;8.55;4.78;;;;;;;20.34;48.76;100278.03;5052169;28;20033;-49
2021/09/26 00:35:27;;;;;;;9.65;4.70;;;;;;;20.34;48.98;100285.34;5052107;28;20028;-52
2021/09/26 00:37:52;;;;;;;7.35;4.70;;;;;;;20.39;48.82;100282.66;5051825;28;20028;-49
2021/09/26 00:40:18;;;;;;;9.57;4.65;;;;;;;20.32;48.96;100285.59;5051920;28;20036;-48
2021/09/26 00:42:43;;;;;;;6.25;4.40;;;;;;;20.31;48.98;100279.38;5051282;28;20519;-49
2021/09/26 00:45:09;;;;;;;5.80;4.68;;;;;;;20.32;48.63;100285.59;5051792;28;20440;-50
2021/09/26 00:47:35;;;;;;;6.70;4.80;;;;;;;20.21;49.09;100284.66;5052024;28;20021;-50
2021/09/26 00:50:00;;;;;;;8.70;4.93;;;;;;;20.27;48.97;100282.81;5051571;28;20029;-50
2021/09/26 00:52:25;;;;;;;10.38;4.95;;;;;;;20.39;48.32;100290.78;5051039;28;20029;-49
2021/09/26 00:54:51;;;;;;;5.88;4.55;;;;;;;20.46;47.99;100288.69;5051773;28;20036;-48
2021/09/26 00:57:17;;;;;;;6.03;4.57;;;;;;;20.51;47.92;100294.16;5051572;28;20504;-50
2021/09/26 00:59:42;;;;;;;7.85;4.90;;;;;;;20.48;48.54;100297.34;5051445;28;20108;-49
2021/09/26 01:02:07;;;;;;;8.70;4.43;;;;;;;20.55;48.26;100284.47;5051518;28;20024;-52
2021/09/26 01:04:33;;;;;;;7.15;5.00;;;;;;;20.63;47.66;100294.00;5051544;28;20429;-49
2021/09/26 01:07:07;;;;;;;8.95;4.55;;;;;;;20.59;48.35;100293.69;5049821;28;20025;-51
2021/09/26 01:09:33;;;;;;;8.77;4.60;;;;;;;20.64;48.11;100288.34;5051373;28;20446;-49
2021/09/26 01:12:23;;;;;;;5.32;4.47;;;;;;;20.56;48.37;100285.25;5051159;28;20033;-49
2021/09/26 01:15:24;;;;;;;6.60;4.77;;;;;;;20.61;48.15;100288.84;5051137;28;20053;-49
2021/09/26 01:18:08;;;;;;;7.50;4.95;;;;;;;20.67;48.08;100290.53;5027296;28;20272;-50
2021/09/26 01:20:46;;;;;;;7.85;4.88;;;;;;;20.65;48.36;100294.56;5034234;28;20056;-48
2021/09/26 01:23:20;;;;;;;9.10;4.80;;;;;;;20.63;48.28;100294.81;5049582;28;20017;-48
2021/09/26 01:26:10;;;;;;;8.00;4.72;;;;;;;20.63;48.12;100289.41;5049731;28;20457;-49
2021/09/26 01:29:09;;;;;;;9.13;4.80;;;;;;;20.53;48.58;100294.72;5050907;28;20021;-48
2021/09/26 01:31:36;;;;;;;5.60;4.70;;;;;;;20.47;48.57;100299.25;5050959;28;20036;-49
2021/09/26 01:34:18;;;;;;;9.05;4.70;;;;;;;20.51;48.94;100303.06;5033368;28;20089;-47
2021/09/26 01:36:51;;;;;;;6.82;4.90;;;;;;;20.45;48.48;100292.47;5049568;28;20029;-47
2021/09/26 01:39:27;;;;;;;6.45;4.53;;;;;;;20.50;48.67;100290.66;5033712;28;20154;-47
2021/09/26 01:42:08;;;;;;;7.82;5.18;;;;;;;20.50;48.76;100290.66;5049503;28;20108;-47
2021/09/26 01:44:48;;;;;;;6.93;4.63;;;;;;;20.43;49.00;100292.72;5050441;28;20370;-48
2021/09/26 01:47:15;;;;;;;12.75;5.20;;;;;;;20.37;49.07;100287.50;5049188;28;20047;-51
2021/09/26 01:49:44;;;;;;;9.50;5.15;;;;;;;20.41;49.05;100278.66;5032331;28;20036;-47
2021/09/26 01:52:15;;;;;;;7.60;4.90;;;;;;;20.34;49.03;100282.63;5049532;28;20021;-48
2021/09/26 01:54:41;;;;;;;10.25;4.93;;;;;;;20.23;49.27;100276.31;5049069;28;20033;-49
2021/09/26 01:57:06;;;;;;;8.15;5.25;;;;;;;20.09;49.86;100275.91;5050013;28;20025;-50
2021/09/26 01:59:31;;;;;;;6.68;5.15;;;;;;;19.95;50.04;100270.03;5048896;28;20036;-49
2021/09/26 02:01:57;;;;;;;7.50;5.50;;;;;;;20.01;49.86;100270.91;5032295;28;20025;-48
2021/09/26 02:04:23;;;;;;;7.20;5.20;;;;;;;20.05;49.66;100280.19;5032360;28;20033;-49
2021/09/26 02:06:48;;;;;;;9.85;5.38;;;;;;;19.91;49.90;100253.56;5048372;28;20043;-51
2021/09/26 02:09:14;;;;;;;8.27;5.85;;;;;;;19.97;50.24;100286.00;5031362;28;20025;-51
2021/09/26 02:11:40;;;;;;;7.90;5.38;;;;;;;19.97;50.44;100286.84;5048429;28;20086;-48
2021/09/26 02:14:06;;;;;;;7.43;5.38;;;;;;;19.97;50.35;100286.84;5049504;28;20123;-49
2021/09/26 02:16:31;;;;;;;8.25;5.53;;;;;;;20.02;49.96;100272.56;5048988;28;20403;-48
2021/09/26 02:18:57;;;;;;;8.23;5.50;;;;;;;20.08;50.29;100277.75;5031657;28;20025;-48
2021/09/26 02:21:22;;;;;;;8.75;5.60;;;;;;;19.85;50.45;100278.03;5031875;28;20433;-49
2021/09/26 02:23:48;;;;;;;8.60;5.80;;;;;;;19.92;50.31;100284.88;5048824;28;20032;-48
2021/09/26 02:26:14;;;;;;;11.50;5.55;;;;;;;19.92;50.64;100289.47;5031713;28;20025;-50
2021/09/26 02:28:39;;;;;;;10.93;5.70;;;;;;;19.97;49.96;100286.84;5049952;28;20021;-48
2021/09/26 02:31:08;;;;;;;11.13;5.78;;;;;;;19.93;50.24;100288.38;5049765;28;20029;-51
2021/09/26 02:33:35;;;;;;;7.35;5.47;;;;;;;19.95;50.36;100296.25;5052122;28;20037;-48
2021/09/26 02:36:01;;;;;;;7.63;6.10;;;;;;;19.83;50.73;100296.38;5056571;28;20039;-51
2021/09/26 02:38:26;;;;;;;8.27;6.20;;;;;;;19.82;50.39;100298.28;5056032;28;20404;-51
2021/09/26 02:40:54;;;;;;;9.52;5.70;;;;;;;19.82;50.56;100302.84;5056551;28;20036;-49
2021/09/26 02:44:14;;;;;;;9.75;5.35;;;;;;;19.99;50.28;100294.66;5054974;28;20047;-49
2021/09/26 02:46:42;;;;;;;8.07;5.63;;;;;;;19.84;50.51;100303.44;5017222;28;20044;-50
2021/09/26 02:49:07;;;;;;;8.30;5.80;;;;;;;19.82;50.70;100303.69;5054544;28;20117;-49
2021/09/26 02:51:33;;;;;;;9.85;5.70;;;;;;;19.75;50.61;100300.34;5054887;28;20098;-49
2021/09/26 02:54:00;;;;;;;8.73;5.75;;;;;;;19.83;50.12;100315.28;5054946;28;20177;-50
2021/09/26 02:56:25;;;;;;;10.07;6.18;;;;;;;19.80;49.77;100305.81;5056332;28;20025;-51
2021/09/26 02:58:51;;;;;;;10.68;6.40;;;;;;;19.73;49.64;100307.88;5038240;28;20028;-47
2021/09/26 03:01:17;;;;;;;10.45;6.43;;;;;;;19.67;50.01;100311.56;5038094;28;20029;-47
2021/09/26 03:03:42;;;;;;;9.88;6.57;;;;;;;19.68;50.09;100313.16;5056259;28;20094;-48
2021/09/26 03:06:08;;;;;;;9.85;6.78;;;;;;;19.66;50.06;100310.72;5056118;28;20048;-47
2021/09/26 03:08:33;;;;;;;9.55;6.70;;;;;;;19.61;50.22;100312.53;5056005;28;20025;-47
2021/09/26 03:11:00;;;;;;;11.50;6.20;;;;;;;19.47;50.63;100309.38;5056321;28;20037;-51
2021/09/26 03:13:26;;;;;;;8.07;5.80;;;;;;;19.54;50.56;100308.13;5055732;28;20132;-47
2021/09/26 03:15:51;;;;;;;12.95;7.10;;;;;;;19.45;51.03;100306.91;5055809;28;20059;-50
2021/09/26 03:18:17;;;;;;;13.13;7.43;;;;;;;19.48;50.85;100308.31;5056144;28;20024;-51
2021/09/26 03:20:42;;;;;;;11.23;7.13;;;;;;;19.48;50.79;100300.22;5056188;28;20048;-51
2021/09/26 03:23:08;;;;;;;10.43;6.90;;;;;;;19.44;51.03;100301.75;5056237;28;20087;-47
2021/09/26 03:25:33;;;;;;;29.90;16.48;;;;;;;19.52;51.10;100299.47;5056098;28;20025;-47
2021/09/26 03:27:59;;;;;;;26.65;15.32;;;;;;;19.35;51.62;100304.09;5055907;28;20048;-50
2021/09/26 03:30:24;;;;;;;23.00;12.57;;;;;;;19.28;52.08;100309.63;5056050;28;20416;-48
2021/09/26 03:32:50;;;;;;;22.98;13.20;;;;;;;19.21;51.89;100303.63;5055981;28;20120;-51
2021/09/26 03:35:15;;;;;;;18.73;12.27;;;;;;;19.21;52.02;100302.78;5056335;28;20040;-51
2021/09/26 03:37:41;;;;;;;18.40;9.48;;;;;;;19.08;52.30;100307.47;5056476;28;20024;-49
2021/09/26 03:40:08;;;;;;;17.98;8.07;;;;;;;19.00;52.47;100307.88;5055925;28;20530;-53
2021/09/26 03:42:34;;;;;;;14.48;8.65;;;;;;;19.04;52.40;100309.03;5055996;28;20032;-48
2021/09/26 03:45:00;;;;;;;16.38;8.52;;;;;;;19.01;52.45;100308.69;5053643;28;20476;-50
2021/09/26 03:47:26;;;;;;;13.48;8.18;;;;;;;19.02;52.38;100313.84;5052637;28;20024;-50
2021/09/26 03:49:52;;;;;;;13.63;8.00;;;;;;;18.96;52.82;100306.72;5053635;28;20109;-49
2021/09/26 03:52:17;;;;;;;17.63;8.60;;;;;;;18.93;52.69;100309.94;5053088;28;20465;-48
2021/09/26 03:54:42;;;;;;;16.35;8.50;;;;;;;19.02;52.59;100313.84;5053075;28;20033;-51
2021/09/26 03:57:08;;;;;;;15.02;8.50;;;;;;;19.05;52.35;100307.94;5053247;28;20029;-51
2021/09/26 03:59:33;;;;;;;12.57;8.00;;;;;;;19.00;52.80;100305.19;5053425;28;20461;-50
2021/09/26 04:01:59;;;;;;;15.07;7.93;;;;;;;18.93;52.75;100308.03;5043293;28;20076;-48
2021/09/26 04:04:25;;;;;;;14.63;7.82;;;;;;;18.97;52.54;100311.06;5042460;28;20044;-54
2021/09/26 04:06:50;;;;;;;15.15;7.90;;;;;;;19.06;52.26;100308.78;5053154;28;20134;-51
2021/09/26 04:09:16;;;;;;;13.82;7.82;;;;;;;18.96;52.54;100309.41;5053091;28;20047;-50
2021/09/26 04:11:41;;;;;;;22.40;13.18;;;;;;;18.92;52.60;100311.81;5053193;28;20405;-48
2021/09/26 04:14:06;;;;;;;31.05;16.55;;;;;;;18.92;52.35;100298.31;5052824;28;20056;-51
2021/09/26 04:16:32;;;;;;;17.05;10.00;;;;;;;18.98;52.50;100303.78;5053058;28;20036;-48
2021/09/26 04:18:58;;;;;;;32.70;13.25;;;;;;;19.12;52.27;100311.31;5051579;28;20425;-48
2021/09/26 04:21:23;;;;;;;26.80;13.07;;;;;;;18.97;52.52;100310.25;5051960;28;20086;-48
2021/09/26 04:23:49;;;;;;;23.20;13.05;;;;;;;18.88;52.85;100307.13;5051750;28;20020;-48
2021/09/26 04:26:14;;;;;;;20.42;10.95;;;;;;;18.68;53.60;100310.28;5051508;28;20103;-49
2021/09/26 04:28:40;;;;;;;20.98;10.77;;;;;;;18.78;53.24;100309.63;5051426;28;20128;-51
2021/09/26 04:31:05;;;;;;;20.17;10.98;;;;;;;18.92;52.94;100316.38;5051414;28;20141;-49
2021/09/26 04:33:31;;;;;;;16.58;9.90;;;;;;;18.92;52.96;100311.81;5050040;28;20476;-49
2021/09/26 04:35:56;;;;;;;20.65;9.02;;;;;;;19.05;52.32;100321.44;5051498;28;20029;-50
2021/09/26 04:38:22;;;;;;;19.05;9.13;;;;;;;19.27;51.50;100320.72;5051232;28;20055;-51
2021/09/26 04:40:47;;;;;;;16.60;8.77;;;;;;;19.40;50.85;100322.22;5051752;28;20029;-49
2021/09/26 04:43:13;;;;;;;22.92;13.38;;;;;;;19.31;51.14;100327.25;5052700;28;20029;-50
2021/09/26 04:45:38;;;;;;;14.02;9.38;;;;;;;19.40;50.95;100325.75;5052651;28;20035;-48
2021/09/26 04:48:04;;;;;;;12.23;7.50;;;;;;;19.63;50.79;100327.44;5052639;28;20028;-51
2021/09/26 04:50:31;;;;;;;12.30;7.10;;;;;;;19.90;49.97;100337.53;5051392;28;20109;-49
2021/09/26 04:52:56;;;;;;;13.93;7.47;;;;;;;20.19;48.97;100332.72;5052555;28;20036;-49
2021/09/26 04:55:24;;;;;;;24.45;11.73;;;;;;;20.49;48.43;100336.84;5052468;28;20029;-48
2021/09/26 04:57:51;;;;;;;38.65;28.30;;;;;;;20.74;48.21;100340.91;5052140;28;20039;-48
2021/09/26 05:00:17;;;;;;;24.40;15.85;;;;;;;20.94;47.50;100337.56;5052342;28;20029;-48
2021/09/26 05:02:43;;;;;;;20.38;12.95;;;;;;;21.38;45.91;100337.34;5052736;28;20032;-51
2021/09/26 05:05:09;;;;;;;17.08;8.85;;;;;;;21.41;45.71;100336.81;5050553;28;20148;-51
2021/09/26 05:07:34;;;;;;;19.10;10.95;;;;;;;21.60;45.38;100332.63;5052081;28;20039;-51
2021/09/26 05:10:00;;;;;;;14.57;7.70;;;;;;;21.86;44.53;100333.56;5052140;28;20033;-47
2021/09/26 05:12:25;;;;;;;11.85;7.03;;;;;;;22.02;44.40;100342.56;5051613;28;20025;-50
2021/09/26 05:14:50;;;;;;;13.85;6.80;;;;;;;22.10;44.22;100337.72;5045006;28;20052;-48
2021/09/26 05:17:16;;;;;;;11.35;6.32;;;;;;;22.26;44.04;100344.88;5042919;28;20029;-47
2021/09/26 05:19:46;;;;;;;15.23;7.10;;;;;;;22.56;43.76;100344.13;5050395;28;20036;-49
2021/09/26 05:22:12;;;;;;;12.40;6.47;;;;;;;22.98;42.34;100351.22;5042562;28;20021;-48
2021/09/26 05:24:37;;;;;;;11.93;6.90;;;;;;;23.13;42.37;100349.59;5031958;28;20469;-49
2021/09/26 05:27:03;;;;;;;11.63;6.38;;;;;;;23.51;41.75;100348.19;5031766;28;20052;-47
2021/09/26 05:29:29;;;;;;;16.27;9.95;;;;;;;23.81;40.93;100350.03;5031921;28;20059;-49
2021/09/26 05:31:54;;;;;;;24.13;15.77;;;;;;;24.17;40.25;100354.53;5035106;28;20025;-51
2021/09/26 05:34:20;;;;;;;18.35;11.82;;;;;;;24.59;39.58;100348.59;5043291;28;20369;-49
2021/09/26 05:36:45;;;;;;;14.48;6.85;;;;;;;24.81;38.77;100354.72;5051411;28;20016;-51
2021/09/26 05:39:11;;;;;;;8.48;5.45;;;;;;;25.20;37.21;100357.38;5051526;28;20031;-49
2021/09/26 05:41:36;;;;;;;6.85;5.13;;;;;;;25.49;36.67;100342.97;5051452;28;20013;-50
2021/09/26 05:44:02;;;;;;;6.85;5.03;;;;;;;25.79;36.22;100350.00;5051530;28;20594;-49
2021/09/26 05:46:27;;;;;;;9.80;4.93;;;;;;;26.14;35.58;100356.97;5050871;28;20025;-50
2021/09/26 05:48:53;;;;;;;6.93;5.03;;;;;;;26.31;35.08;100359.19;5050723;28;20024;-51
2021/09/26 05:51:18;;;;;;;9.23;5.03;;;;;;;26.59;34.58;100353.06;5049793;28;20031;-49
2021/09/26 05:53:44;;;;;;;8.43;5.05;;;;;;;26.63;34.66;100367.78;5050879;28;20448;-50
2021/09/26 05:56:09;;;;;;;7.97;5.30;;;;;;;26.70;34.21;100370.94;5051055;28;20028;-50
2021/09/26 05:58:35;;;;;;;8.20;5.25;;;;;;;26.59;34.62;100364.00;5051095;28;20016;-48
2021/09/26 06:01:00;;;;;;;9.43;5.80;;;;;;;26.95;33.73;100361.53;5050905;28;20036;-51
2021/09/26 06:03:25;;;;;;;9.50;5.53;;;;;;;27.43;33.01;100363.22;5050967;28;20428;-48
2021/09/26 06:05:51;;;;;;;7.28;5.32;;;;;;;27.68;32.23;100360.00;5050968;28;20021;-49
2021/09/26 06:08:17;;;;;;;29.75;16.90;;;;;;;27.97;36.92;100363.56;5050280;28;20028;-49
2021/09/26 06:10:42;;;;;;;19.63;12.70;;;;;;;28.34;33.87;100364.44;5051233;28;20525;-48
2021/09/26 06:13:08;;;;;;;16.73;10.75;;;;;;;28.65;33.33;100370.88;5050676;28;20099;-47
2021/09/26 06:15:34;;;;;;;10.63;5.65;;;;;;;28.59;31.32;100368.53;5050782;28;20101;-46
2021/09/26 06:18:00;;;;;;;10.80;5.65;;;;;;;28.83;31.06;100369.06;5050573;28;20126;-47
2021/09/26 06:20:25;;;;;;;8.77;6.55;;;;;;;29.11;30.64;100374.41;5051005;28;20404;-49
2021/09/26 06:22:51;;;;;;;9.27;6.20;;;;;;;29.55;29.92;100364.50;5050981;28;20522;-49
2021/09/26 06:25:18;;;;;;;9.25;6.50;;;;;;;29.81;29.42;100361.88;5050540;28;20048;-37
2021/09/26 06:27:43;;;;;;;8.63;5.95;;;;;;;30.23;28.39;100366.97;5016403;28;20094;-37
2021/09/26 06:30:09;;;;;;;9.00;6.55;;;;;;;30.05;29.19;100365.34;5050596;28;20033;-38
2021/09/26 06:32:35;;;;;;;13.75;6.18;;;;;;;30.28;28.77;100364.09;5050428;28;20112;-38
2021/09/26 06:35:01;;;;;;;28.40;20.80;;;;;;;30.60;28.26;100364.78;5050713;28;20037;-37
2021/09/26 06:37:26;;;;;;;12.95;7.38;;;;;;;31.01;27.72;100368.97;5050660;28;20049;-37
2021/09/26 06:39:53;;;;;;;9.45;6.25;;;;;;;31.12;27.46;100366.69;5049985;28;20025;-37
2021/09/26 06:42:18;;;;;;;15.82;7.22;;;;;;;31.04;27.88;100364.78;5041791;28;20041;-37
2021/09/26 06:44:44;;;;;;;9.30;5.55;;;;;;;31.24;26.98;100361.31;5048463;28;20155;-37
2021/09/26 06:47:09;;;;;;;10.45;6.15;;;;;;;31.45;26.90;100364.16;5045472;28;20140;-37
2021/09/26 06:49:35;;;;;;;10.20;5.75;;;;;;;31.52;27.06;100358.97;5050088;28;20422;-37
2021/09/26 06:52:00;;;;;;;14.43;6.72;;;;;;;31.32;27.35;100367.91;5049627;28;20021;-37
2021/09/26 06:54:26;;;;;;;9.90;5.88;;;;;;;31.31;27.23;100355.31;5048433;28;20029;-38
2021/09/26 06:56:51;;;;;;;7.90;5.60;;;;;;;31.75;26.59;100355.97;5049262;28;20664;-37
2021/09/26 06:59:17;;;;;;;9.93;5.70;;;;;;;32.06;26.31;100365.88;5049617;28;20417;-38
2021/09/26 07:01:42;;;;;;;12.02;6.40;;;;;;;31.53;27.13;100359.81;5048087;28;20470;-44
2021/09/26 07:04:08;;;;;;;8.65;6.00;;;;;;;31.45;26.85;100369.66;5048841;28;20108;-38
2021/09/26 07:06:33;;;;;;;9.82;6.50;;;;;;;30.96;27.76;100369.97;5048639;28;20025;-37
2021/09/26 07:08:59;;;;;;;9.13;5.70;;;;;;;31.51;27.13;100373.06;5048222;28;20028;-37
2021/09/26 07:11:24;;;;;;;12.40;6.07;;;;;;;30.71;28.75;100368.00;5047236;28;20025;-38
2021/09/26 07:13:50;;;;;;;8.63;5.65;;;;;;;31.37;27.44;100371.28;5048748;28;20481;-38
2021/09/26 07:16:16;;;;;;;9.82;7.22;;;;;;;31.91;26.43;100369.97;5047638;28;20036;-38
2021/09/26 07:18:41;;;;;;;9.05;6.00;;;;;;;32.27;26.12;100365.88;5047945;28;20025;-38
2021/09/26 07:21:07;;;;;;;9.75;5.70;;;;;;;32.37;25.78;100370.19;5051006;28;20025;-38
2021/09/26 07:23:32;;;;;;;7.60;5.10;;;;;;;32.20;26.41;100362.88;5052014;28;20102;-38
2021/09/26 07:25:57;;;;;;;6.45;4.90;;;;;;;32.49;25.81;100362.78;5049131;28;20025;-38
2021/09/26 07:28:23;;;;;;;8.15;5.38;;;;;;;31.94;26.66;100364.59;5054359;28;20051;-37
2021/09/26 07:30:48;;;;;;;9.25;5.28;;;;;;;32.62;25.90;100368.41;5037697;28;20404;-39
2021/09/26 07:33:14;;;;;;;8.32;5.00;;;;;;;32.90;25.52;100361.19;5033566;28;20029;-38
2021/09/26 07:35:39;;;;;;;7.40;5.40;;;;;;;32.63;25.88;100364.50;5033926;28;20057;-37
2021/09/26 07:38:05;;;;;;;6.82;4.70;;;;;;;33.15;25.11;100368.72;5034065;28;20036;-37
2021/09/26 07:40:30;;;;;;;10.75;5.50;;;;;;;33.30;25.25;100365.31;5043205;28;20029;-37
2021/09/26 07:42:56;;;;;;;11.55;5.07;;;;;;;33.64;24.84;100363.31;5053318;28;20032;-38
2021/09/26 07:45:21;;;;;;;8.88;5.60;;;;;;;33.43;24.58;100352.34;5053597;28;20063;-38
2021/09/26 07:47:47;;;;;;;9.57;5.65;;;;;;;33.48;24.64;100358.44;5052788;28;20029;-38
2021/09/26 07:50:12;;;;;;;10.75;5.50;;;;;;;33.72;24.13;100359.66;5052696;28;20044;-38
2021/09/26 07:52:38;;;;;;;8.50;4.35;;;;;;;34.04;23.61;100368.13;5052844;28;20682;-38
2021/09/26 07:55:04;;;;;;;6.50;4.43;;;;;;;33.44;24.41;100360.28;5053024;28;20029;-38
2021/09/26 07:57:30;;;;;;;7.78;4.57;;;;;;;33.11;24.84;100360.34;5053196;28;20112;-36
2021/09/26 07:59:55;;;;;;;7.68;4.88;;;;;;;32.83;25.64;100357.38;5052251;28;20111;-37
2021/09/26 08:02:20;;;;;;;6.72;4.45;;;;;;;33.27;25.02;100358.53;5052832;28;20024;-37
2021/09/26 08:04:46;;;;;;;8.73;4.55;;;;;;;33.16;24.94;100345.53;5052700;28;20037;-37
2021/09/26 08:07:11;;;;;;;6.00;4.55;;;;;;;31.51;26.90;100343.63;5052492;28;20040;-38
2021/09/26 08:09:37;;;;;;;6.65;4.60;;;;;;;31.42;27.18;100342.84;5053017;28;20029;-37
2021/09/26 08:12:04;;;;;;;7.45;4.22;;;;;;;31.27;27.06;100344.16;5053283;28;20037;-38
2021/09/26 08:14:29;;;;;;;7.85;4.53;;;;;;;30.99;27.65;100335.50;5052968;28;20128;-37
2021/09/26 08:16:55;;;;;;;8.57;4.80;;;;;;;30.86;27.90;100336.47;5052689;28;20032;-38
2021/09/26 08:19:22;;;;;;;6.68;4.28;;;;;;;31.34;27.27;100336.22;5052889;28;20075;-38
2021/09/26 08:21:48;;;;;;;6.72;4.22;;;;;;;31.31;27.37;100333.34;5049322;28;20409;-38
2021/09/26 08:24:13;;;;;;;9.73;4.55;;;;;;;30.89;27.43;100341.34;5049712;28;20025;-37
2021/09/26 08:26:39;;;;;;;6.20;4.75;;;;;;;30.79;27.17;100324.06;5046573;28;20491;-37
2021/09/26 08:29:04;;;;;;;8.00;4.40;;;;;;;30.70;28.42;100322.47;5037358;28;20033;-36
2021/09/26 08:31:30;;;;;;;7.47;4.57;;;;;;;31.23;27.72;100321.22;5048163;28;20424;-37
2021/09/26 08:33:55;;;;;;;5.20;4.43;;;;;;;31.74;26.81;100324.13;5048916;28;20021;-37
2021/09/26 08:36:21;;;;;;;5.95;4.10;;;;;;;32.52;26.00;100325.53;5052257;28;20063;-38
2021/09/26 08:38:46;;;;;;;5.68;4.43;;;;;;;33.00;24.47;100329.63;5052466;28;20083;-37
2021/09/26 08:41:13;;;;;;;5.97;4.40;;;;;;;33.21;24.45;100326.81;5052033;28;20056;-37
2021/09/26 08:43:39;;;;;;;6.10;4.45;;;;;;;33.51;24.19;100323.88;5050024;28;20443;-37
2021/09/26 08:46:04;;;;;;;7.55;4.82;;;;;;;32.60;25.17;100321.13;5049939;28;20025;-38
2021/09/26 08:48:30;;;;;;;7.90;4.90;;;;;;;31.08;27.29;100316.28;5048530;28;20036;-36
2021/09/26 08:50:55;;;;;;;6.40;4.72;;;;;;;32.09;25.83;100307.41;5049569;28;20025;-38
2021/09/26 08:53:25;;;;;;;7.88;4.65;;;;;;;31.94;26.00;100311.53;5049347;28;20462;-38
2021/09/26 08:55:53;;;;;;;4.80;4.20;;;;;;;32.52;25.07;100301.53;5032326;28;20648;-38
2021/09/26 08:58:19;;;;;;;8.32;4.15;;;;;;;32.51;25.45;100299.13;5050124;28;20306;-38
2021/09/26 09:00:44;;;;;;;6.60;4.40;;;;;;;32.88;25.28;100302.00;5049949;28;20066;-37
2021/09/26 09:03:11;;;;;;;7.78;4.15;;;;;;;33.64;24.17;100300.69;5048454;28;20029;-36
2021/09/26 09:05:39;;;;;;;9.27;4.20;;;;;;;33.67;24.35;100299.97;5051525;28;20032;-37
2021/09/26 09:08:12;;;;;;;5.85;4.13;;;;;;;34.05;23.26;100289.69;5051789;28;20029;-37
2021/09/26 09:11:07;;;;;;;6.00;4.05;;;;;;;34.19;23.53;100286.56;5052042;28;20056;-37
2021/09/26 09:13:35;;;;;;;5.85;4.20;;;;;;;34.35;23.09;100290.19;5042407;28;20509;-38
2021/09/26 09:16:07;;;;;;;13.07;10.13;;;;;;;34.47;23.08;100290.13;5051714;28;20360;-37
2021/09/26 09:18:53;;;;;;;5.95;4.43;;;;;;;34.32;22.94;100279.81;5051299;28;20711;-38
2021/09/26 09:21:32;;;;;;;8.07;4.80;;;;;;;34.39;22.54;100274.50;5051587;28;20086;-37
2021/09/26 09:24:10;;;;;;;7.50;4.43;;;;;;;34.53;23.19;100278.81;5051521;28;20025;-37
2021/09/26 09:26:37;;;;;;;9.77;6.40;;;;;;;33.80;23.66;100277.88;5051650;28;20029;-38
2021/09/26 09:29:03;;;;;;;6.82;4.90;;;;;;;33.39;24.11;100271.44;5051182;28;20056;-38
2021/09/26 09:31:28;;;;;;;10.63;4.50;;;;;;;33.39;24.09;100279.72;5051096;28;20453;-38
2021/09/26 09:33:54;;;;;;;5.68;4.22;;;;;;;33.94;22.87;100274.75;5051185;28;20497;-37
2021/09/26 09:36:27;;;;;;;4.72;4.03;;;;;;;34.00;22.95;100273.34;5050233;28;20020;-38
2021/09/26 09:39:06;;;;;;;7.32;4.20;;;;;;;33.57;23.43;100272.03;5051316;28;20037;-38
2021/09/26 09:41:42;;;;;;;9.30;4.30;;;;;;;33.22;24.09;100266.97;5051246;28;20029;-38
2021/09/26 09:44:09;;;;;;;6.18;4.20;;;;;;;33.72;23.54;100263.06;5048951;28;20029;-37
2021/09/26 09:46:40;;;;;;;5.13;4.20;;;;;;;34.02;23.79;100263.56;5049574;28;20028;-38
2021/09/26 09:49:13;;;;;;;5.95;4.28;;;;;;;33.78;24.05;100261.69;5050944;28;20071;-37
2021/09/26 09:51:52;;;;;;;6.43;4.03;;;;;;;33.77;23.66;100256.50;5050258;28;20076;-38
2021/09/26 09:54:34;;;;;;;7.40;4.30;;;;;;;34.01;22.98;100255.66;5050978;28;20021;-38
2021/09/26 09:57:14;;;;;;;6.55;4.25;;;;;;;34.50;22.58;100251.91;5049451;28;20159;-38
2021/09/26 09:59:39;;;;;;;7.45;4.30;;;;;;;34.36;22.85;100249.56;5050749;28;20025;-40
2021/09/26 10:02:05;;;;;;;7.75;4.00;;;;;;;34.20;22.98;100249.50;5051122;28;20025;-38
2021/09/26 10:04:42;;;;;;;4.47;3.90;;;;;;;33.27;24.04;100247.44;5049348;28;20025;-38
2021/09/26 10:07:23;;;;;;;7.30;3.95;;;;;;;32.83;24.38;100238.88;5049355;28;20098;-37
2021/09/26 10:09:49;;;;;;;5.38;4.00;;;;;;;32.87;24.48;100237.03;5050545;28;20025;-38
2021/09/26 10:12:19;;;;;;;44.58;33.40;;;;;;;32.71;24.74;100236.88;5048727;28;20124;-38
2021/09/26 10:14:44;;;;;;;10.73;8.25;;;;;;;32.92;24.23;100220.28;5050242;28;20056;-38
2021/09/26 10:17:10;;;;;;;4.80;3.88;;;;;;;32.84;24.31;100229.44;5032097;28;20082;-37
2021/09/26 10:19:36;;;;;;;7.55;3.90;;;;;;;33.72;23.93;100218.94;5049769;28;20551;-38
2021/09/26 10:22:03;;;;;;;7.57;3.80;;;;;;;33.79;23.73;100213.59;5048614;28;20021;-36
2021/09/26 10:24:30;;;;;;;5.75;3.90;;;;;;;34.23;23.03;100208.19;5050601;28;20025;-38
2021/09/26 10:27:01;;;;;;;8.70;3.95;;;;;;;34.89;22.75;100202.41;5050325;28;20104;-38
2021/09/26 10:29:27;;;;;;;3.92;3.53;;;;;;;34.93;22.20;100203.31;5049199;28;20504;-37
2021/09/26 10:31:52;;;;;;;6.45;4.35;;;;;;;35.35;22.03;100200.78;5048956;28;20025;-38
2021/09/26 10:34:20;;;;;;;4.20;3.50;;;;;;;35.55;21.49;100198.84;5049344;28;20135;-38
2021/09/26 10:36:46;;;;;;;7.57;3.50;;;;;;;35.60;21.43;100197.75;5050371;28;20052;-37
2021/09/26 10:39:13;;;;;;;5.35;3.60;;;;;;;35.89;20.92;100196.44;5032177;28;20535;-37
2021/09/26 10:42:04;;;;;;;5.72;3.55;;;;;;;36.05;21.36;100196.34;5032284;28;20078;-38
2021/09/26 10:44:29;;;;;;;5.20;3.55;;;;;;;36.48;20.60;100186.13;5050053;28;20029;-37
2021/09/26 10:47:16;;;;;;;6.88;3.70;;;;;;;36.14;20.52;100183.09;5049832;28;20094;-37
2021/09/26 10:49:46;;;;;;;5.95;3.58;;;;;;;35.79;20.63;100175.66;5049328;28;20154;-37
2021/09/26 10:52:33;;;;;;;4.78;3.70;;;;;;;36.01;20.70;100181.66;5049844;28;20048;-37
2021/09/26 10:55:23;;;;;;;5.25;3.50;;;;;;;36.48;20.88;100182.53;5051471;28;20116;-39
2021/09/26 10:58:07;;;;;;;5.20;3.47;;;;;;;36.12;20.59;100179.06;5054576;28;20056;-38
2021/09/26 11:00:53;;;;;;;5.85;3.65;;;;;;;36.47;20.24;100173.41;5054114;28;20029;-38
2021/09/26 11:03:41;;;;;;;5.35;3.40;;;;;;;36.73;20.11;100175.50;5052881;28;20579;-37
2021/09/26 11:06:27;;;;;;;6.22;3.42;;;;;;;36.58;20.22;100166.09;5054048;28;20511;-37
2021/09/26 11:08:54;;;;;;;5.70;3.80;;;;;;;36.70;20.29;100167.09;5054198;28;20021;-38
2021/09/26 11:11:32;;;;;;;4.47;3.55;;;;;;;36.35;20.39;100159.75;5054745;28;20668;-37
2021/09/26 11:13:58;;;;;;;4.57;3.83;;;;;;;36.57;20.04;100156.16;5052815;28;20415;-37
2021/09/26 11:16:23;;;;;;;5.03;3.55;;;;;;;36.78;19.95;100155.78;5054144;28;20116;-38
2021/09/26 11:18:53;;;;;;;5.40;3.55;;;;;;;36.93;19.70;100142.13;5054254;28;20025;-38
2021/09/26 11:21:43;;;;;;;6.13;3.60;;;;;;;37.23;19.69;100141.41;5053660;28;20028;-37
2021/09/26 11:24:12;;;;;;;5.38;3.58;;;;;;;36.71;20.08;100132.66;5054014;28;20029;-37
2021/09/26 11:27:02;;;;;;;6.53;3.58;;;;;;;36.77;19.74;100125.66;5053876;28;20725;-38